Garstang, United Kingdom
Current Conditions -  °F | °C
As of 6:20 PM on Thursday 30 Oct 2014 (Local Time) from EGNO Reporting Station
Broken Clouds Broken Clouds  
Wind Chill: 61°   Ceiling: 5000
Heat Index: 61°   Visibility: 6mi
Dew Point: 57°   Wind: 7mph
Humidity: 88%   Direction: 160°SSE
Pressure: 29.94"   Gusts: NA
Location:  53.9°N, 2.77°W
Report Text: EGNO 301820Z 16006KT 9999 BKN050 16/14 Q1014
Loading
Personal Weather Stations






























Interactive Weather Map
Tropical Storm Tracking
New forecast layout! Learn more

10-Day Weather Forecast

Advertisements
Track Severe Weather on mobile